sensor_id;sensor_type;location;lat;lon;timestamp;pressure;altitude;pressure_sealevel;temperature;humidity
14067;BME280;7108;42.684;23.350;2023-02-22T00:00:43;95316.84;;;8.80;64.38
14067;BME280;7108;42.684;23.350;2023-02-22T00:05:43;95298.03;;;8.64;65.88
14067;BME280;7108;42.684;23.350;2023-02-22T00:08:13;95324.06;;;8.76;66.40
14067;BME280;7108;42.684;23.350;2023-02-22T00:10:39;95287.44;;;8.56;67.14
14067;BME280;7108;42.684;23.350;2023-02-22T00:13:06;95301.22;;;8.54;66.55
14067;BME280;7108;42.684;23.350;2023-02-22T00:15:33;95313.81;;;8.66;68.20
14067;BME280;7108;42.684;23.350;2023-02-22T00:17:59;95314.81;;;8.61;69.19
14067;BME280;7108;42.684;23.350;2023-02-22T00:20:25;95324.03;;;8.60;68.92
14067;BME280;7108;42.684;23.350;2023-02-22T00:22:52;95310.53;;;8.45;68.53
14067;BME280;7108;42.684;23.350;2023-02-22T00:25:20;95318.34;;;8.50;69.03
14067;BME280;7108;42.684;23.350;2023-02-22T00:27:47;95316.44;;;8.50;70.55
14067;BME280;7108;42.684;23.350;2023-02-22T00:30:21;95320.59;;;8.48;73.21
14067;BME280;7108;42.684;23.350;2023-02-22T00:32:48;95319.03;;;8.47;73.40
14067;BME280;7108;42.684;23.350;2023-02-22T00:35:19;95300.41;;;8.54;72.31
14067;BME280;7108;42.684;23.350;2023-02-22T00:37:50;95310.63;;;8.48;72.39
14067;BME280;7108;42.684;23.350;2023-02-22T00:40:18;95301.47;;;8.49;71.40
14067;BME280;7108;42.684;23.350;2023-02-22T00:42:44;95297.84;;;8.30;74.59
14067;BME280;7108;42.684;23.350;2023-02-22T00:45:11;95298.22;;;8.44;75.28
14067;BME280;7108;42.684;23.350;2023-02-22T00:47:37;95303.31;;;8.34;76.83
14067;BME280;7108;42.684;23.350;2023-02-22T00:50:02;95258.41;;;8.19;76.69
14067;BME280;7108;42.684;23.350;2023-02-22T00:52:28;95286.66;;;8.28;77.68
14067;BME280;7108;42.684;23.350;2023-02-22T00:54:54;95300.66;;;8.22;78.13
14067;BME280;7108;42.684;23.350;2023-02-22T00:57:21;95299.19;;;8.24;78.11
14067;BME280;7108;42.684;23.350;2023-02-22T00:59:46;95278.84;;;8.23;78.99
14067;BME280;7108;42.684;23.350;2023-02-22T01:02:12;95281.00;;;8.18;78.87
14067;BME280;7108;42.684;23.350;2023-02-22T01:04:38;95269.16;;;8.19;78.71
14067;BME280;7108;42.684;23.350;2023-02-22T01:07:03;95271.84;;;8.19;78.40
14067;BME280;7108;42.684;23.350;2023-02-22T01:09:29;95263.53;;;8.24;77.93
14067;BME280;7108;42.684;23.350;2023-02-22T01:11:55;95271.03;;;8.18;76.26
14067;BME280;7108;42.684;23.350;2023-02-22T01:14:22;95246.34;;;8.13;77.56
14067;BME280;7108;42.684;23.350;2023-02-22T01:16:49;95261.53;;;8.21;78.20
14067;BME280;7108;42.684;23.350;2023-02-22T01:19:15;95281.97;;;8.25;78.56
14067;BME280;7108;42.684;23.350;2023-02-22T01:21:41;95265.13;;;8.13;77.89
14067;BME280;7108;42.684;23.350;2023-02-22T01:24:07;95276.50;;;8.22;82.93
14067;BME280;7108;42.684;23.350;2023-02-22T01:26:32;95258.88;;;8.09;79.65
14067;BME280;7108;42.684;23.350;2023-02-22T01:28:58;95275.00;;;7.97;79.88
14067;BME280;7108;42.684;23.350;2023-02-22T01:31:23;95263.81;;;7.95;78.48
14067;BME280;7108;42.684;23.350;2023-02-22T01:33:49;95257.56;;;7.91;79.75
14067;BME280;7108;42.684;23.350;2023-02-22T01:36:15;95267.94;;;8.04;79.62
14067;BME280;7108;42.684;23.350;2023-02-22T01:38:43;95275.00;;;7.97;78.71
14067;BME280;7108;42.684;23.350;2023-02-22T01:41:09;95258.03;;;7.93;80.74
14067;BME280;7108;42.684;23.350;2023-02-22T01:43:35;95271.88;;;7.95;80.37
14067;BME280;7108;42.684;23.350;2023-02-22T01:46:29;95261.59;;;7.85;80.54
14067;BME280;7108;42.684;23.350;2023-02-22T01:51:24;95279.50;;;7.93;82.87
14067;BME280;7108;42.684;23.350;2023-02-22T01:53:52;95278.94;;;7.87;82.13
14067;BME280;7108;42.684;23.350;2023-02-22T01:56:20;95264.66;;;7.72;80.74
14067;BME280;7108;42.684;23.350;2023-02-22T01:58:50;95275.25;;;7.80;81.26
14067;BME280;7108;42.684;23.350;2023-02-22T02:01:19;95275.81;;;7.85;81.66
14067;BME280;7108;42.684;23.350;2023-02-22T02:03:47;95255.38;;;7.69;82.53
14067;BME280;7108;42.684;23.350;2023-02-22T02:06:13;95278.59;;;7.89;83.16
14067;BME280;7108;42.684;23.350;2023-02-22T02:08:51;95293.13;;;7.88;83.59
14067;BME280;7108;42.684;23.350;2023-02-22T02:11:21;95289.88;;;7.82;85.19
14067;BME280;7108;42.684;23.350;2023-02-22T02:13:50;95273.91;;;7.74;85.63
14067;BME280;7108;42.684;23.350;2023-02-22T02:16:17;95297.69;;;7.87;84.71
14067;BME280;7108;42.684;23.350;2023-02-22T02:18:43;95284.66;;;7.74;85.04
14067;BME280;7108;42.684;23.350;2023-02-22T02:21:37;95289.91;;;7.71;84.90
14067;BME280;7108;42.684;23.350;2023-02-22T02:35:08;95278.44;;;7.46;86.13
14067;BME280;7108;42.684;23.350;2023-02-22T02:43:40;95297.28;;;7.50;86.38
14067;BME280;7108;42.684;23.350;2023-02-22T02:48:44;95279.22;;;7.35;86.72
14067;BME280;7108;42.684;23.350;2023-02-22T02:51:11;95300.78;;;7.50;89.06
14067;BME280;7108;42.684;23.350;2023-02-22T02:53:41;95308.00;;;7.50;91.04
14067;BME280;7108;42.684;23.350;2023-02-22T02:56:08;95306.91;;;7.51;90.05
14067;BME280;7108;42.684;23.350;2023-02-22T02:58:44;95308.34;;;7.48;91.13
14067;BME280;7108;42.684;23.350;2023-02-22T03:01:11;95299.44;;;7.44;90.72
14067;BME280;7108;42.684;23.350;2023-02-22T03:03:46;95309.38;;;7.44;92.10
14067;BME280;7108;42.684;23.350;2023-02-22T03:06:46;95307.25;;;7.49;92.55
14067;BME280;7108;42.684;23.350;2023-02-22T03:18:40;95304.03;;;7.44;89.68
14067;BME280;7108;42.684;23.350;2023-02-22T03:21:33;95306.81;;;7.35;88.90
14067;BME280;7108;42.684;23.350;2023-02-22T03:24:29;95297.97;;;7.11;91.84
14067;BME280;7108;42.684;23.350;2023-02-22T03:29:37;95309.00;;;7.21;92.53
14067;BME280;7108;42.684;23.350;2023-02-22T03:32:09;95303.44;;;7.26;91.56
14067;BME280;7108;42.684;23.350;2023-02-22T03:34:48;95308.59;;;7.19;92.89
14067;BME280;7108;42.684;23.350;2023-02-22T03:37:20;95290.91;;;7.07;92.73
14067;BME280;7108;42.684;23.350;2023-02-22T03:39:50;95300.31;;;7.13;92.38
14067;BME280;7108;42.684;23.350;2023-02-22T03:42:20;95298.97;;;7.18;91.90
14067;BME280;7108;42.684;23.350;2023-02-22T03:44:49;95293.72;;;7.22;93.01
14067;BME280;7108;42.684;23.350;2023-02-22T03:47:20;95299.75;;;7.19;92.92
14067;BME280;7108;42.684;23.350;2023-02-22T03:50:14;95302.88;;;7.21;93.29
14067;BME280;7108;42.684;23.350;2023-02-22T03:52:41;95290.50;;;7.05;93.88
14067;BME280;7108;42.684;23.350;2023-02-22T03:55:09;95307.88;;;7.11;95.05
14067;BME280;7108;42.684;23.350;2023-02-22T03:57:39;95302.22;;;7.12;95.19
14067;BME280;7108;42.684;23.350;2023-02-22T04:00:08;95303.88;;;7.16;96.79
14067;BME280;7108;42.684;23.350;2023-02-22T04:02:35;95291.81;;;7.11;98.56
14067;BME280;7108;42.684;23.350;2023-02-22T04:05:01;95298.22;;;7.18;97.47
14067;BME280;7108;42.684;23.350;2023-02-22T04:07:26;95298.63;;;7.20;96.88
14067;BME280;7108;42.684;23.350;2023-02-22T04:09:52;95278.09;;;7.00;97.58
14067;BME280;7108;42.684;23.350;2023-02-22T04:12:17;95309.69;;;7.18;98.21
14067;BME280;7108;42.684;23.350;2023-02-22T04:14:43;95304.53;;;7.02;99.71
14067;BME280;7108;42.684;23.350;2023-02-22T04:17:08;95292.38;;;7.04;98.55
14067;BME280;7108;42.684;23.350;2023-02-22T04:19:35;95304.22;;;7.15;100.00
14067;BME280;7108;42.684;23.350;2023-02-22T04:22:00;95306.66;;;7.08;100.00
14067;BME280;7108;42.684;23.350;2023-02-22T04:24:26;95306.00;;;7.11;99.41
14067;BME280;7108;42.684;23.350;2023-02-22T04:26:52;95290.59;;;6.96;99.41
14067;BME280;7108;42.684;23.350;2023-02-22T04:29:19;95309.66;;;7.07;99.67
14067;BME280;7108;42.684;23.350;2023-02-22T04:31:44;95317.94;;;7.14;100.00
14067;BME280;7108;42.684;23.350;2023-02-22T04:34:10;95313.16;;;7.07;100.00
14067;BME280;7108;42.684;23.350;2023-02-22T04:36:36;95306.09;;;7.03;100.00
14067;BME280;7108;42.684;23.350;2023-02-22T04:39:01;95315.16;;;7.10;100.00
14067;BME280;7108;42.684;23.350;2023-02-22T04:41:27;95319.72;;;7.21;99.68
14067;BME280;7108;42.684;23.350;2023-02-22T04:43:52;95300.84;;;6.94;100.00
14067;BME280;7108;42.684;23.350;2023-02-22T04:46:18;95303.31;;;6.99;100.00
14067;BME280;7108;42.684;23.350;2023-02-22T04:48:44;95310.34;;;7.04;100.00
14067;BME280;7108;42.684;23.350;2023-02-22T04:51:09;95311.47;;;7.03;100.00
14067;BME280;7108;42.684;23.350;2023-02-22T04:53:35;95306.41;;;6.89;100.00
14067;BME280;7108;42.684;23.350;2023-02-22T04:56:01;95300.59;;;6.87;100.00
14067;BME280;7108;42.684;23.350;2023-02-22T04:58:32;95309.66;;;6.95;100.00
14067;BME280;7108;42.684;23.350;2023-02-22T05:00:59;95313.09;;;6.83;100.00
14067;BME280;7108;42.684;23.350;2023-02-22T05:03:25;95322.13;;;6.79;100.00
14067;BME280;7108;42.684;23.350;2023-02-22T05:05:51;95314.09;;;6.79;100.00
14067;BME280;7108;42.684;23.350;2023-02-22T05:08:17;95317.41;;;6.76;100.00
14067;BME280;7108;42.684;23.350;2023-02-22T05:10:42;95305.44;;;6.61;100.00
14067;BME280;7108;42.684;23.350;2023-02-22T05:13:08;95310.78;;;6.61;100.00
14067;BME280;7108;42.684;23.350;2023-02-22T05:15:34;95307.09;;;6.54;100.00
14067;BME280;7108;42.684;23.350;2023-02-22T05:17:59;95311.25;;;6.63;100.00
14067;BME280;7108;42.684;23.350;2023-02-22T05:20:30;95306.78;;;6.55;100.00
14067;BME280;7108;42.684;23.350;2023-02-22T05:22:57;95329.56;;;6.73;100.00
14067;BME280;7108;42.684;23.350;2023-02-22T05:25:24;95322.38;;;6.53;100.00
14067;BME280;7108;42.684;23.350;2023-02-22T05:27:53;95319.00;;;6.45;100.00
14067;BME280;7108;42.684;23.350;2023-02-22T05:30:20;95312.28;;;6.39;100.00
14067;BME280;7108;42.684;23.350;2023-02-22T05:32:48;95348.03;;;6.54;100.00
14067;BME280;7108;42.684;23.350;2023-02-22T05:35:14;95337.66;;;6.53;100.00
14067;BME280;7108;42.684;23.350;2023-02-22T05:37:40;95323.69;;;6.48;100.00
14067;BME280;7108;42.684;23.350;2023-02-22T05:40:05;95341.06;;;6.42;100.00
14067;BME280;7108;42.684;23.350;2023-02-22T05:42:32;95354.16;;;6.55;100.00
14067;BME280;7108;42.684;23.350;2023-02-22T05:45:00;95335.13;;;6.36;100.00
14067;BME280;7108;42.684;23.350;2023-02-22T05:47:26;95347.22;;;6.42;100.00
14067;BME280;7108;42.684;23.350;2023-02-22T05:49:55;95325.75;;;6.30;100.00
14067;BME280;7108;42.684;23.350;2023-02-22T05:52:20;95366.09;;;6.57;100.00
14067;BME280;7108;42.684;23.350;2023-02-22T05:54:46;95347.13;;;6.51;100.00
14067;BME280;7108;42.684;23.350;2023-02-22T05:57:11;95364.03;;;6.63;100.00
14067;BME280;7108;42.684;23.350;2023-02-22T05:59:37;95361.13;;;6.68;100.00
14067;BME280;7108;42.684;23.350;2023-02-22T06:02:02;95358.19;;;6.81;100.00
14067;BME280;7108;42.684;23.350;2023-02-22T06:04:28;95358.22;;;7.05;100.00
14067;BME280;7108;42.684;23.350;2023-02-22T06:06:56;95373.13;;;7.38;100.00
14067;BME280;7108;42.684;23.350;2023-02-22T06:09:22;95372.34;;;7.50;100.00
14067;BME280;7108;42.684;23.350;2023-02-22T06:11:47;95355.72;;;7.56;100.00
14067;BME280;7108;42.684;23.350;2023-02-22T06:14:13;95370.34;;;7.82;97.79
14067;BME280;7108;42.684;23.350;2023-02-22T06:16:38;95359.16;;;7.92;97.20
14067;BME280;7108;42.684;23.350;2023-02-22T06:19:04;95353.00;;;8.04;96.87
14067;BME280;7108;42.684;23.350;2023-02-22T06:21:29;95339.72;;;7.95;96.75
14067;BME280;7108;42.684;23.350;2023-02-22T06:23:55;95360.59;;;8.26;93.13
14067;BME280;7108;42.684;23.350;2023-02-22T06:26:20;95362.91;;;8.39;89.84
14067;BME280;7108;42.684;23.350;2023-02-22T06:28:47;95355.19;;;8.38;92.16
14067;BME280;7108;42.684;23.350;2023-02-22T06:31:13;95352.56;;;8.53;93.47
14067;BME280;7108;42.684;23.350;2023-02-22T06:33:38;95351.16;;;8.71;96.07
14067;BME280;7108;42.684;23.350;2023-02-22T06:36:04;95372.72;;;8.86;88.66
14067;BME280;7108;42.684;23.350;2023-02-22T06:38:30;95345.63;;;8.79;85.45
14067;BME280;7108;42.684;23.350;2023-02-22T06:40:55;95366.50;;;8.98;83.18
14067;BME280;7108;42.684;23.350;2023-02-22T06:43:22;95377.84;;;9.07;84.53
14067;BME280;7108;42.684;23.350;2023-02-22T06:45:49;95371.47;;;9.26;82.74
14067;BME280;7108;42.684;23.350;2023-02-22T06:48:14;95369.31;;;9.32;77.10
14067;BME280;7108;42.684;23.350;2023-02-22T06:50:39;95357.88;;;9.19;73.10
14067;BME280;7108;42.684;23.350;2023-02-22T06:53:05;95374.69;;;9.32;72.73
14067;BME280;7108;42.684;23.350;2023-02-22T06:55:33;95353.19;;;9.32;75.51
14067;BME280;7108;42.684;23.350;2023-02-22T06:57:59;95363.53;;;9.45;74.25
14067;BME280;7108;42.684;23.350;2023-02-22T07:00:26;95373.56;;;9.48;72.87
14067;BME280;7108;42.684;23.350;2023-02-22T07:02:54;95357.50;;;9.36;72.13
14067;BME280;7108;42.684;23.350;2023-02-22T07:05:21;95351.38;;;9.36;72.94
14067;BME280;7108;42.684;23.350;2023-02-22T07:07:48;95368.13;;;9.60;72.58
14067;BME280;7108;42.684;23.350;2023-02-22T07:10:28;95362.81;;;9.79;71.34
14067;BME280;7108;42.684;23.350;2023-02-22T07:12:55;95363.50;;;10.07;70.98
14067;BME280;7108;42.684;23.350;2023-02-22T07:15:22;95363.06;;;10.39;69.00
14067;BME280;7108;42.684;23.350;2023-02-22T07:17:49;95363.31;;;10.68;65.51
14067;BME280;7108;42.684;23.350;2023-02-22T07:20:15;95369.13;;;10.89;64.18
14067;BME280;7108;42.684;23.350;2023-02-22T07:22:41;95366.78;;;11.29;62.99
14067;BME280;7108;42.684;23.350;2023-02-22T07:25:07;95354.78;;;11.68;59.76
14067;BME280;7108;42.684;23.350;2023-02-22T07:27:37;95360.50;;;12.37;59.01
14067;BME280;7108;42.684;23.350;2023-02-22T07:30:09;95351.59;;;12.62;55.25
14067;BME280;7108;42.684;23.350;2023-02-22T07:32:41;95350.66;;;12.80;53.57
14067;BME280;7108;42.684;23.350;2023-02-22T07:35:20;95347.53;;;12.78;53.75
14067;BME280;7108;42.684;23.350;2023-02-22T07:37:46;95345.25;;;12.80;53.21
14067;BME280;7108;42.684;23.350;2023-02-22T07:40:12;95348.91;;;12.95;52.80
14067;BME280;7108;42.684;23.350;2023-02-22T07:45:34;95318.59;;;13.11;52.19
14067;BME280;7108;42.684;23.350;2023-02-22T07:48:01;95345.25;;;13.49;52.09
14067;BME280;7108;42.684;23.350;2023-02-22T07:50:28;95341.41;;;13.54;51.71
14067;BME280;7108;42.684;23.350;2023-02-22T07:53:00;95324.03;;;13.55;50.67
14067;BME280;7108;42.684;23.350;2023-02-22T07:55:28;95340.78;;;13.67;50.18
14067;BME280;7108;42.684;23.350;2023-02-22T07:57:56;95345.84;;;13.69;50.32
14067;BME280;7108;42.684;23.350;2023-02-22T08:00:36;95338.44;;;13.66;49.88
14067;BME280;7108;42.684;23.350;2023-02-22T08:03:06;95336.56;;;13.73;50.01
14067;BME280;7108;42.684;23.350;2023-02-22T08:05:34;95331.09;;;13.63;50.61
14067;BME280;7108;42.684;23.350;2023-02-22T08:08:00;95322.03;;;13.48;49.18
14067;BME280;7108;42.684;23.350;2023-02-22T08:10:27;95331.41;;;13.58;50.05
14067;BME280;7108;42.684;23.350;2023-02-22T08:12:55;95338.47;;;13.69;49.56
14067;BME280;7108;42.684;23.350;2023-02-22T08:15:30;95332.31;;;13.72;49.69
14067;BME280;7108;42.684;23.350;2023-02-22T08:17:57;95318.66;;;13.58;49.34
14067;BME280;7108;42.684;23.350;2023-02-22T08:20:27;95333.41;;;13.64;48.99
14067;BME280;7108;42.684;23.350;2023-02-22T08:22:53;95316.34;;;13.60;48.44
14067;BME280;7108;42.684;23.350;2023-02-22T08:25:21;95318.66;;;13.58;49.56
14067;BME280;7108;42.684;23.350;2023-02-22T08:27:47;95327.59;;;13.66;49.38
14067;BME280;7108;42.684;23.350;2023-02-22T08:30:17;95312.16;;;13.66;48.81
14067;BME280;7108;42.684;23.350;2023-02-22T08:32:45;95311.72;;;13.61;50.15
14067;BME280;7108;42.684;23.350;2023-02-22T08:35:11;95317.16;;;13.64;50.47
14067;BME280;7108;42.684;23.350;2023-02-22T08:37:41;95320.91;;;13.49;48.89
14067;BME280;7108;42.684;23.350;2023-02-22T08:40:07;95279.09;;;13.43;49.11
14067;BME280;7108;42.684;23.350;2023-02-22T08:42:33;95302.75;;;13.53;49.04
14067;BME280;7108;42.684;23.350;2023-02-22T08:44:58;95297.41;;;13.60;49.64
14067;BME280;7108;42.684;23.350;2023-02-22T08:47:24;95298.25;;;13.68;49.96
14067;BME280;7108;42.684;23.350;2023-02-22T08:49:50;95314.19;;;13.76;50.13
14067;BME280;7108;42.684;23.350;2023-02-22T08:52:15;95293.25;;;13.73;49.91
14067;BME280;7108;42.684;23.350;2023-02-22T08:54:41;95313.47;;;13.86;50.35
14067;BME280;7108;42.684;23.350;2023-02-22T08:57:06;95311.56;;;13.90;49.00
14067;BME280;7108;42.684;23.350;2023-02-22T08:59:31;95313.94;;;13.95;49.33
14067;BME280;7108;42.684;23.350;2023-02-22T09:01:57;95277.13;;;13.90;49.38
14067;BME280;7108;42.684;23.350;2023-02-22T09:04:22;95299.38;;;14.13;48.99
14067;BME280;7108;42.684;23.350;2023-02-22T09:06:48;95289.97;;;13.97;48.65
14067;BME280;7108;42.684;23.350;2023-02-22T09:09:17;95295.72;;;13.92;48.96
14067;BME280;7108;42.684;23.350;2023-02-22T09:11:44;95275.41;;;13.65;49.81
14067;BME280;7108;42.684;23.350;2023-02-22T09:14:10;95295.09;;;13.62;50.41
14067;BME280;7108;42.684;23.350;2023-02-22T09:16:35;95276.44;;;13.54;50.40
14067;BME280;7108;42.684;23.350;2023-02-22T09:19:02;95284.56;;;13.50;50.96
14067;BME280;7108;42.684;23.350;2023-02-22T09:21:28;95280.41;;;13.63;52.00
14067;BME280;7108;42.684;23.350;2023-02-22T09:23:53;95255.16;;;13.52;51.39
14067;BME280;7108;42.684;23.350;2023-02-22T09:26:19;95288.97;;;13.69;50.82
14067;BME280;7108;42.684;23.350;2023-02-22T09:28:48;95269.56;;;13.63;51.60
14067;BME280;7108;42.684;23.350;2023-02-22T09:31:13;95264.22;;;13.70;51.53
14067;BME280;7108;42.684;23.350;2023-02-22T09:33:40;95282.59;;;13.97;51.31
14067;BME280;7108;42.684;23.350;2023-02-22T09:36:06;95276.44;;;14.04;50.98
14067;BME280;7108;42.684;23.350;2023-02-22T09:38:31;95274.13;;;14.02;49.88
14067;BME280;7108;42.684;23.350;2023-02-22T09:41:14;95273.44;;;14.12;50.80
14067;BME280;7108;42.684;23.350;2023-02-22T09:43:44;95280.84;;;14.22;50.08
14067;BME280;7108;42.684;23.350;2023-02-22T09:49:05;95252.63;;;14.27;49.64
14067;BME280;7108;42.684;23.350;2023-02-22T09:51:41;95239.81;;;14.24;49.27
14067;BME280;7108;42.684;23.350;2023-02-22T09:54:14;95269.38;;;14.53;49.57
14067;BME280;7108;42.684;23.350;2023-02-22T09:56:44;95256.53;;;14.40;47.09
14067;BME280;7108;42.684;23.350;2023-02-22T09:59:16;95263.59;;;14.58;47.30
14067;BME280;7108;42.684;23.350;2023-02-22T10:01:47;95227.91;;;14.39;47.38
14067;BME280;7108;42.684;23.350;2023-02-22T10:04:24;95248.13;;;14.69;48.42
14067;BME280;7108;42.684;23.350;2023-02-22T10:09:38;95228.31;;;14.47;46.74
14067;BME280;7108;42.684;23.350;2023-02-22T10:12:36;95247.34;;;14.61;47.29
14067;BME280;7108;42.684;23.350;2023-02-22T10:18:31;95225.25;;;14.56;46.82
14067;BME280;7108;42.684;23.350;2023-02-22T10:20:55;95229.94;;;14.69;47.05
14067;BME280;7108;42.684;23.350;2023-02-22T10:23:29;95230.34;;;14.78;47.93
14067;BME280;7108;42.684;23.350;2023-02-22T10:26:14;95217.22;;;14.94;47.72
14067;BME280;7108;42.684;23.350;2023-02-22T10:31:44;95216.06;;;15.09;46.30
14067;BME280;7108;42.684;23.350;2023-02-22T10:34:20;95206.38;;;15.11;45.87
14067;BME280;7108;42.684;23.350;2023-02-22T10:36:50;95204.88;;;15.28;46.04
14067;BME280;7108;42.684;23.350;2023-02-22T10:39:30;95195.19;;;15.27;45.63
14067;BME280;7108;42.684;23.350;2023-02-22T10:42:00;95200.22;;;15.42;45.76
14067;BME280;7108;42.684;23.350;2023-02-22T10:44:34;95183.94;;;15.42;46.13
14067;BME280;7108;42.684;23.350;2023-02-22T10:47:02;95169.19;;;15.54;46.00
14067;BME280;7108;42.684;23.350;2023-02-22T10:49:57;95175.41;;;15.54;45.68
14067;BME280;7108;42.684;23.350;2023-02-22T10:52:29;95170.72;;;15.58;45.19
14067;BME280;7108;42.684;23.350;2023-02-22T10:54:57;95160.25;;;15.53;44.73
14067;BME280;7108;42.684;23.350;2023-02-22T10:57:31;95139.34;;;15.43;44.72
14067;BME280;7108;42.684;23.350;2023-02-22T11:00:17;95157.16;;;15.62;44.65
14067;BME280;7108;42.684;23.350;2023-02-22T11:02:52;95145.50;;;15.61;44.67
14067;BME280;7108;42.684;23.350;2023-02-22T11:05:37;95153.59;;;15.89;44.57
14067;BME280;7108;42.684;23.350;2023-02-22T11:08:26;95155.91;;;16.04;44.32
14067;BME280;7108;42.684;23.350;2023-02-22T11:10:55;95150.81;;;16.17;44.21
14067;BME280;7108;42.684;23.350;2023-02-22T11:13:28;95151.16;;;16.29;44.15
14067;BME280;7108;42.684;23.350;2023-02-22T11:16:01;95120.09;;;16.23;43.90
14067;BME280;7108;42.684;23.350;2023-02-22T11:18:41;95149.94;;;16.37;43.43
14067;BME280;7108;42.684;23.350;2023-02-22T11:21:09;95129.78;;;16.24;42.68
14067;BME280;7108;42.684;23.350;2023-02-22T11:23:37;95125.53;;;16.30;42.60
14067;BME280;7108;42.684;23.350;2023-02-22T11:26:10;95128.16;;;16.51;42.56
14067;BME280;7108;42.684;23.350;2023-02-22T11:28:42;95121.16;;;16.50;42.75
14067;BME280;7108;42.684;23.350;2023-02-22T11:31:30;95103.69;;;16.47;42.79
14067;BME280;7108;42.684;23.350;2023-02-22T11:33:57;95103.13;;;16.73;43.32
14067;BME280;7108;42.684;23.350;2023-02-22T11:39:14;95108.84;;;16.89;40.80
14067;BME280;7108;42.684;23.350;2023-02-22T11:41:45;95097.97;;;16.89;41.49
14067;BME280;7108;42.684;23.350;2023-02-22T11:44:34;95109.47;;;17.07;40.75
14067;BME280;7108;42.684;23.350;2023-02-22T11:47:02;95110.63;;;17.09;40.56
14067;BME280;7108;42.684;23.350;2023-02-22T11:49:36;95096.28;;;17.02;39.89
14067;BME280;7108;42.684;23.350;2023-02-22T12:05:52;95086.22;;;17.46;38.81
14067;BME280;7108;42.684;23.350;2023-02-22T12:08:56;95076.91;;;17.40;38.83
14067;BME280;7108;42.684;23.350;2023-02-22T12:14:37;95081.63;;;17.36;38.64
14067;BME280;7108;42.684;23.350;2023-02-22T12:20:17;95057.81;;;17.44;37.85
14067;BME280;7108;42.684;23.350;2023-02-22T12:26:09;95057.72;;;17.54;36.99
14067;BME280;7108;42.684;23.350;2023-02-22T12:28:40;95049.84;;;17.63;37.37
14067;BME280;7108;42.684;23.350;2023-02-22T12:31:21;95059.34;;;17.85;36.54
14067;BME280;7108;42.684;23.350;2023-02-22T12:33:57;95037.53;;;17.85;36.98
14067;BME280;7108;42.684;23.350;2023-02-22T12:36:48;95040.53;;;17.94;35.94
14067;BME280;7108;42.684;23.350;2023-02-22T12:41:54;95048.63;;;17.68;36.05
14067;BME280;7108;42.684;23.350;2023-02-22T12:44:28;95049.66;;;17.77;36.07
14067;BME280;7108;42.684;23.350;2023-02-22T12:46:56;95048.03;;;17.83;36.36
14067;BME280;7108;42.684;23.350;2023-02-22T12:49:35;95050.69;;;17.90;36.19
14067;BME280;7108;42.684;23.350;2023-02-22T12:55:17;95024.56;;;17.92;35.89
14067;BME280;7108;42.684;23.350;2023-02-22T13:00:45;95028.97;;;18.13;35.88
14067;BME280;7108;42.684;23.350;2023-02-22T13:06:27;95029.19;;;18.29;34.64
14067;BME280;7108;42.684;23.350;2023-02-22T13:11:29;95031.25;;;18.18;33.27
14067;BME280;7108;42.684;23.350;2023-02-22T13:19:04;95031.44;;;18.04;34.47
14067;BME280;7108;42.684;23.350;2023-02-22T13:21:56;95020.44;;;17.81;34.32
14067;BME280;7108;42.684;23.350;2023-02-22T13:24:38;95014.94;;;17.84;35.02
14067;BME280;7108;42.684;23.350;2023-02-22T13:27:25;95018.91;;;17.80;35.14
14067;BME280;7108;42.684;23.350;2023-02-22T13:29:58;95018.06;;;17.83;35.63
14067;BME280;7108;42.684;23.350;2023-02-22T13:35:58;95024.00;;;17.74;35.43
14067;BME280;7108;42.684;23.350;2023-02-22T13:43:52;95021.38;;;17.68;35.85
14067;BME280;7108;42.684;23.350;2023-02-22T13:46:41;95013.97;;;17.68;35.58
14067;BME280;7108;42.684;23.350;2023-02-22T13:52:13;95015.59;;;17.62;35.61
14067;BME280;7108;42.684;23.350;2023-02-22T13:54:52;95002.59;;;17.43;35.52
14067;BME280;7108;42.684;23.350;2023-02-22T13:57:26;95008.03;;;17.43;35.74
14067;BME280;7108;42.684;23.350;2023-02-22T14:16:23;95014.59;;;17.49;36.37
14067;BME280;7108;42.684;23.350;2023-02-22T14:21:31;94987.19;;;17.23;36.46
14067;BME280;7108;42.684;23.350;2023-02-22T14:24:13;95002.34;;;17.27;36.53
14067;BME280;7108;42.684;23.350;2023-02-22T14:26:40;95003.47;;;17.33;36.82
14067;BME280;7108;42.684;23.350;2023-02-22T14:29:18;95018.09;;;17.46;36.89
14067;BME280;7108;42.684;23.350;2023-02-22T14:34:47;95019.06;;;17.29;36.28
14067;BME280;7108;42.684;23.350;2023-02-22T14:37:24;95011.69;;;17.26;35.63
14067;BME280;7108;42.684;23.350;2023-02-22T14:40:00;95006.66;;;17.21;35.71
14067;BME280;7108;42.684;23.350;2023-02-22T14:42:40;95006.66;;;17.21;36.26
14067;BME280;7108;42.684;23.350;2023-02-22T14:55:42;95010.34;;;17.01;35.20
14067;BME280;7108;42.684;23.350;2023-02-22T15:00:47;95016.22;;;17.00;36.17
14067;BME280;7108;42.684;23.350;2023-02-22T15:05:48;95010.06;;;16.92;35.84
14067;BME280;7108;42.684;23.350;2023-02-22T15:08:16;95013.19;;;16.91;36.10
14067;BME280;7108;42.684;23.350;2023-02-22T15:10:44;95012.50;;;16.80;36.29
14067;BME280;7108;42.684;23.350;2023-02-22T15:15:44;95009.41;;;16.78;37.85
14067;BME280;7108;42.684;23.350;2023-02-22T15:18:34;95009.81;;;16.76;38.48
14067;BME280;7108;42.684;23.350;2023-02-22T15:21:10;94996.72;;;16.61;38.50
14067;BME280;7108;42.684;23.350;2023-02-22T15:24:05;95005.25;;;16.63;39.38
14067;BME280;7108;42.684;23.350;2023-02-22T15:26:34;94995.25;;;16.49;39.89
14067;BME280;7108;42.684;23.350;2023-02-22T15:29:16;95017.72;;;16.57;40.36
14067;BME280;7108;42.684;23.350;2023-02-22T15:31:42;95003.47;;;16.42;40.76
14067;BME280;7108;42.684;23.350;2023-02-22T15:36:40;95010.84;;;16.39;41.78
14067;BME280;7108;42.684;23.350;2023-02-22T15:39:18;95015.56;;;16.35;41.77
14067;BME280;7108;42.684;23.350;2023-02-22T15:41:43;95020.22;;;16.38;41.84
14067;BME280;7108;42.684;23.350;2023-02-22T15:44:10;95008.19;;;16.35;42.00
14067;BME280;7108;42.684;23.350;2023-02-22T15:46:37;95001.28;;;16.20;42.52
14067;BME280;7108;42.684;23.350;2023-02-22T15:51:36;95023.78;;;16.17;43.00
14067;BME280;7108;42.684;23.350;2023-02-22T15:54:03;95018.75;;;16.16;43.44